Time;durP1;ratioP1;P1;durP2;ratioP2;P2;SDS_P1;SDS_P2;PMS_P1;PMS_P2;Temp;Humidity;BMP_temperature;BMP_pressure;BME280_temperature;BME280_humidity;BME280_pressure;Samples;Min_cycle;Max_cycle;Signal;HPM_P1;HPM_P2
2022/06/27 00:00:39;;;;;;;2.90;2.10;;;;;;;19.81;65.12;99941.73;1651949;86;22016;-81
2022/06/27 00:03:06;;;;;;;2.83;2.20;;;;;;;19.81;65.03;99942.58;1664029;86;21567;-81
2022/06/27 00:05:33;;;;;;;2.30;2.10;;;;;;;19.82;64.73;99944.77;1651968;86;21690;-80
2022/06/27 00:07:59;;;;;;;4.08;2.25;;;;;;;19.82;64.66;99939.42;1652204;86;21142;-82
2022/06/27 00:10:27;;;;;;;2.67;2.10;;;;;;;19.82;64.84;99940.30;1650755;86;21068;-82
2022/06/27 00:12:54;;;;;;;2.17;2.08;;;;;;;19.80;64.95;99944.02;1664146;86;21210;-77
2022/06/27 00:15:20;;;;;;;2.08;1.98;;;;;;;19.78;65.04;99939.27;1652136;86;21087;-82
2022/06/27 00:17:47;;;;;;;2.62;2.20;;;;;;;19.73;65.21;99936.02;1652270;86;21082;-80
2022/06/27 00:20:13;;;;;;;4.05;2.33;;;;;;;19.71;65.20;99936.11;1651172;86;21114;-82
2022/06/27 00:22:41;;;;;;;2.50;2.30;;;;;;;19.68;65.39;99938.48;1663801;85;21118;-81
2022/06/27 00:25:10;;;;;;;3.75;2.20;;;;;;;19.66;65.54;99936.89;1651957;86;21161;-81
2022/06/27 00:27:37;;;;;;;2.77;2.30;;;;;;;19.63;65.44;99937.09;1664126;86;21126;-81
2022/06/27 00:30:05;;;;;;;2.92;2.67;;;;;;;19.59;65.56;99935.10;1651302;86;21473;-80
2022/06/27 00:32:32;;;;;;;2.30;2.10;;;;;;;19.56;65.48;99936.63;1650899;86;21127;-82
2022/06/27 00:34:58;;;;;;;5.72;2.22;;;;;;;19.53;65.78;99937.31;1652193;86;21901;-82
2022/06/27 00:37:25;;;;;;;2.30;2.10;;;;;;;19.49;65.85;99936.66;1664396;86;21126;-82
2022/06/27 00:39:52;;;;;;;2.87;2.12;;;;;;;19.45;65.63;99937.34;1652593;86;21167;-82
2022/06/27 00:42:18;;;;;;;2.90;2.10;;;;;;;19.41;65.64;99935.81;1664234;86;21118;-82
2022/06/27 00:44:46;;;;;;;2.50;2.08;;;;;;;19.39;65.71;99942.22;1664348;86;21150;-82
2022/06/27 00:47:13;;;;;;;2.80;2.40;;;;;;;19.34;65.82;99946.52;1651998;86;21163;-82
2022/06/27 00:49:40;;;;;;;1.90;1.80;;;;;;;19.28;65.92;99941.10;1651252;86;21208;-82
2022/06/27 00:52:12;;;;;;;2.72;2.62;;;;;;;19.26;66.00;99944.32;1665059;85;21182;-81
2022/06/27 00:54:41;;;;;;;2.20;2.08;;;;;;;19.24;66.36;99944.06;1669486;85;21091;-81
2022/06/27 00:57:07;;;;;;;2.12;2.02;;;;;;;19.20;66.33;99939.40;1660359;85;21095;-80
2022/06/27 00:59:35;;;;;;;3.90;2.35;;;;;;;19.17;66.13;99942.25;1661256;86;21099;-82
2022/06/27 01:02:02;;;;;;;3.10;2.15;;;;;;;19.12;66.11;99948.36;1661295;86;21576;-80
2022/06/27 01:04:29;;;;;;;2.37;2.17;;;;;;;19.07;66.01;99946.47;1662101;84;21019;-82
2022/06/27 01:06:56;;;;;;;2.65;2.45;;;;;;;19.03;66.08;99947.59;1664329;84;21670;-79
2022/06/27 01:09:23;;;;;;;2.45;2.25;;;;;;;19.00;66.33;99945.99;1661283;84;22140;-82
2022/06/27 01:11:50;;;;;;;2.22;2.02;;;;;;;18.96;66.30;99947.61;1661346;85;21145;-82
2022/06/27 01:14:17;;;;;;;2.25;2.15;;;;;;;18.92;66.34;99948.28;1661103;84;22069;-81
2022/06/27 01:16:44;;;;;;;2.52;2.40;;;;;;;18.86;66.40;99948.20;1661102;85;21102;-82
2022/06/27 01:19:14;;;;;;;3.83;2.42;;;;;;;18.82;66.67;99951.11;1661278;86;21130;-82
2022/06/27 01:21:49;;;;;;;2.98;2.60;;;;;;;18.76;66.77;99942.99;1661352;86;21090;-81
2022/06/27 01:24:18;;;;;;;3.40;2.40;;;;;;;18.74;67.02;99950.23;1661262;85;21531;-81
2022/06/27 01:26:45;;;;;;;2.77;2.42;;;;;;;18.68;67.30;99943.48;1661021;86;21118;-81
2022/06/27 01:29:13;;;;;;;3.27;2.50;;;;;;;18.65;67.62;99941.48;1661064;86;21499;-80
2022/06/27 01:31:42;;;;;;;4.25;2.42;;;;;;;18.60;67.66;99948.91;1661357;86;21118;-81
2022/06/27 01:34:09;;;;;;;3.42;2.22;;;;;;;18.56;67.64;99950.42;1661164;86;21057;-81
2022/06/27 01:36:41;;;;;;;2.67;2.00;;;;;;;18.52;67.52;99951.54;1661169;86;21097;-81
2022/06/27 01:39:17;;;;;;;2.50;2.40;;;;;;;18.48;67.51;99948.70;1661403;86;21824;-80
2022/06/27 01:41:49;;;;;;;2.50;2.30;;;;;;;18.42;67.64;99945.06;1660954;86;21665;-83
2022/06/27 01:44:16;;;;;;;2.50;2.30;;;;;;;18.40;67.76;99946.97;1661134;85;21122;-83
2022/06/27 01:47:08;;;;;;;2.65;2.45;;;;;;;18.37;68.30;99949.81;1661318;86;21126;-82
2022/06/27 01:49:37;;;;;;;2.47;2.15;;;;;;;18.35;68.45;99950.38;1661155;86;21146;-82
2022/06/27 01:52:07;;;;;;;2.80;2.60;;;;;;;18.29;68.36;99946.74;1661035;86;21135;-83
2022/06/27 01:54:35;;;;;;;2.58;2.37;;;;;;;18.25;68.57;99950.55;1661149;86;21193;-84
2022/06/27 01:57:04;;;;;;;2.60;2.40;;;;;;;18.25;68.80;99947.89;1641902;86;21127;-80
2022/06/27 01:59:32;;;;;;;2.58;2.42;;;;;;;18.25;68.85;99950.55;1661201;85;21024;-82
2022/06/27 02:02:03;;;;;;;3.83;2.70;;;;;;;18.25;69.14;99954.55;1661178;86;21039;-80
2022/06/27 02:04:30;;;;;;;2.58;2.37;;;;;;;18.25;69.02;99955.39;1660990;86;21740;-82
2022/06/27 02:06:59;;;;;;;5.55;2.33;;;;;;;18.26;68.85;99954.94;1661329;85;21032;-82
2022/06/27 02:09:25;;;;;;;3.33;2.30;;;;;;;18.24;68.78;99958.15;1661156;86;21153;-81
2022/06/27 02:11:54;;;;;;;2.70;2.47;;;;;;;18.25;69.26;99955.88;1661466;86;21094;-80
2022/06/27 02:14:21;;;;;;;2.90;2.60;;;;;;;18.27;69.31;99953.98;1661197;86;21103;-82
2022/06/27 02:16:48;;;;;;;2.80;2.60;;;;;;;18.28;69.39;99962.36;1661472;86;21119;-81
2022/06/27 02:19:17;;;;;;;6.03;2.67;;;;;;;18.30;69.89;99960.45;1661190;85;21076;-81
2022/06/27 02:21:44;;;;;;;4.12;2.65;;;;;;;18.33;69.89;99960.28;1661261;85;21646;-81
2022/06/27 02:24:11;;;;;;;4.05;2.60;;;;;;;18.35;70.00;99959.22;1661424;86;21531;-83
2022/06/27 02:26:38;;;;;;;2.47;2.37;;;;;;;18.38;69.97;99967.52;1661054;86;21059;-80
2022/06/27 02:29:05;;;;;;;2.92;2.30;;;;;;;18.39;69.86;99963.89;1661186;86;21194;-82
2022/06/27 02:31:33;;;;;;;4.53;2.50;;;;;;;18.42;70.15;99966.38;1661161;86;21622;-81
2022/06/27 02:34:01;;;;;;;3.10;2.77;;;;;;;18.47;70.07;99970.95;1661139;85;21083;-82
2022/06/27 02:36:32;;;;;;;2.92;2.83;;;;;;;18.52;69.81;99972.02;1661154;85;21143;-82
2022/06/27 02:39:00;;;;;;;3.90;2.85;;;;;;;18.56;70.56;99969.08;1661664;86;21651;-82
2022/06/27 02:41:30;;;;;;;4.22;2.58;;;;;;;18.62;70.58;99973.65;1661274;86;21709;-82
2022/06/27 02:44:02;;;;;;;2.90;2.70;;;;;;;18.67;70.85;99972.89;1642161;86;21162;-81
2022/06/27 02:46:30;;;;;;;3.58;3.25;;;;;;;18.71;70.39;99970.41;1661376;86;21601;-81
2022/06/27 02:48:57;;;;;;;2.77;2.33;;;;;;;18.76;70.47;99968.31;1661138;86;21644;-82
2022/06/27 02:51:27;;;;;;;2.55;2.35;;;;;;;18.79;69.70;99976.13;1620540;85;22387;-81
2022/06/27 02:54:10;;;;;;;3.47;2.62;;;;;;;18.81;69.28;99975.59;1644677;86;21130;-82
2022/06/27 02:56:50;;;;;;;5.22;2.47;;;;;;;18.84;69.32;99978.06;1629782;86;21115;-82
2022/06/27 02:59:24;;;;;;;4.00;2.35;;;;;;;18.90;68.84;99979.52;1617110;88;21090;-80
2022/06/27 03:01:51;;;;;;;2.87;2.35;;;;;;;18.93;68.95;99978.00;1618897;88;28796;-81
2022/06/27 03:04:20;;;;;;;3.35;2.80;;;;;;;18.96;69.05;99979.12;1617536;86;21016;-80
2022/06/27 03:06:49;;;;;;;3.22;2.30;;;;;;;18.99;69.00;99978.93;1619150;88;21197;-81
2022/06/27 03:09:14;;;;;;;6.95;2.72;;;;;;;19.03;68.85;99980.47;1628015;88;21138;-80
2022/06/27 03:11:42;;;;;;;2.60;2.40;;;;;;;19.07;68.81;99985.98;1619055;88;21091;-79
2022/06/27 03:14:09;;;;;;;4.03;2.67;;;;;;;19.12;68.59;99981.70;1631528;86;21163;-80
2022/06/27 03:16:36;;;;;;;2.67;2.47;;;;;;;19.20;70.33;99985.20;1619221;87;21504;-81
2022/06/27 03:19:03;;;;;;;9.20;2.92;;;;;;;19.25;71.26;99990.64;1628447;88;21831;-77
2022/06/27 03:21:47;;;;;;;3.27;2.87;;;;;;;19.29;71.54;99988.64;1629729;85;21070;-83
2022/06/27 03:24:14;;;;;;;4.00;2.52;;;;;;;19.35;71.75;99984.71;1618972;88;21621;-81
2022/06/27 03:26:41;;;;;;;2.80;2.60;;;;;;;19.41;71.86;99983.00;1628353;87;21086;-82
2022/06/27 03:29:10;;;;;;;6.70;2.85;;;;;;;19.48;71.53;99984.31;1618761;87;21067;-82
2022/06/27 03:31:38;;;;;;;2.30;2.20;;;;;;;19.57;71.53;99987.73;1628184;88;21186;-82
2022/06/27 03:34:06;;;;;;;5.05;2.80;;;;;;;19.65;71.51;99988.09;1618905;88;21146;-81
2022/06/27 03:36:46;;;;;;;3.12;2.83;;;;;;;19.73;71.95;99986.25;1619371;86;21067;-82
2022/06/27 03:39:13;;;;;;;6.28;2.22;;;;;;;19.82;72.14;99990.16;1645402;86;21052;-81
2022/06/27 03:41:40;;;;;;;3.02;2.30;;;;;;;19.91;71.79;99986.90;1618784;88;21103;-80
2022/06/27 03:44:11;;;;;;;4.17;2.10;;;;;;;19.99;71.68;99987.25;1618769;88;21141;-81
2022/06/27 03:46:40;;;;;;;4.17;2.45;;;;;;;20.09;71.42;99986.16;1619733;86;21025;-81
2022/06/27 03:51:56;;;;;;;3.30;2.72;;;;;;;20.29;71.25;99982.16;1629529;85;21086;-82
2022/06/27 03:54:23;;;;;;;3.08;2.40;;;;;;;20.38;70.97;99979.33;1618883;88;21173;-81
2022/06/27 03:56:50;;;;;;;4.35;2.30;;;;;;;20.47;70.79;99985.37;1633249;87;21084;-82
2022/06/27 03:59:18;;;;;;;3.30;2.50;;;;;;;20.58;70.73;99980.15;1636964;87;21090;-81
2022/06/27 04:01:46;;;;;;;3.37;2.92;;;;;;;20.66;70.29;99981.00;1637228;87;21027;-81
2022/06/27 04:04:12;;;;;;;3.20;2.22;;;;;;;20.73;70.02;99977.42;1636995;86;21068;-80
2022/06/27 04:06:41;;;;;;;2.45;2.22;;;;;;;20.80;70.13;99976.52;1637223;86;21094;-82
2022/06/27 04:09:07;;;;;;;3.40;2.47;;;;;;;20.86;69.90;99978.25;1637155;86;21511;-81
2022/06/27 04:11:34;;;;;;;6.20;2.95;;;;;;;20.92;69.54;99976.98;1637228;86;21043;-81
2022/06/27 04:14:00;;;;;;;5.70;2.33;;;;;;;21.00;68.62;99985.33;1637278;87;21122;-81
2022/06/27 04:16:46;;;;;;;2.67;2.20;;;;;;;21.10;68.32;99983.70;1637150;86;21127;-82
2022/06/27 04:19:31;;;;;;;3.75;2.70;;;;;;;21.19;68.27;99982.68;1637113;87;21540;-81
2022/06/27 04:22:05;;;;;;;4.67;2.20;;;;;;;21.27;68.17;99984.33;1637305;85;21145;-81
2022/06/27 04:24:49;;;;;;;6.33;2.20;;;;;;;21.34;67.94;99981.57;1622567;88;21156;-83
2022/06/27 04:27:19;;;;;;;7.05;2.10;;;;;;;21.40;68.16;99978.46;1631788;87;21932;-82
2022/06/27 04:29:48;;;;;;;10.85;2.30;;;;;;;21.46;68.38;99976.66;1637327;87;21126;-81
2022/06/27 04:32:18;;;;;;;3.17;2.12;;;;;;;21.52;67.71;99976.25;1637020;87;21090;-83
2022/06/27 04:34:45;;;;;;;5.58;2.35;;;;;;;21.57;67.06;99973.71;1637493;86;21087;-82
2022/06/27 04:37:12;;;;;;;2.72;2.52;;;;;;;21.63;66.67;99978.13;1637100;87;21043;-82
2022/06/27 04:39:40;;;;;;;2.87;2.40;;;;;;;21.72;66.62;99973.95;1639515;86;21098;-81
2022/06/27 04:42:09;;;;;;;5.35;2.83;;;;;;;21.82;66.33;99974.09;1637574;86;21644;-81
2022/06/27 04:44:36;;;;;;;2.40;2.20;;;;;;;21.95;66.41;99984.77;1637117;86;21561;-83
2022/06/27 04:47:12;;;;;;;3.37;2.42;;;;;;;22.04;66.37;99981.38;1637019;87;21988;-82
2022/06/27 04:49:42;;;;;;;2.33;2.10;;;;;;;22.17;66.35;99980.83;1635971;87;21078;-82
2022/06/27 04:52:09;;;;;;;3.67;2.58;;;;;;;22.30;65.87;99978.61;1637264;87;21079;-81
2022/06/27 04:54:37;;;;;;;5.12;2.55;;;;;;;22.42;64.84;99984.36;1636953;87;21097;-81
2022/06/27 04:57:05;;;;;;;4.03;2.67;;;;;;;22.53;64.61;99980.38;1630192;86;21016;-81
2022/06/27 04:59:33;;;;;;;5.95;2.45;;;;;;;22.62;64.16;99976.96;1628076;88;21135;-82
2022/06/27 05:02:02;;;;;;;3.58;2.42;;;;;;;22.71;63.66;99978.56;1629161;85;21055;-81
2022/06/27 05:04:30;;;;;;;3.22;2.37;;;;;;;22.79;63.47;99974.80;1628427;88;21109;-84
2022/06/27 05:06:57;;;;;;;5.75;2.90;;;;;;;22.87;63.52;99974.21;1631888;86;21072;-82
2022/06/27 05:09:24;;;;;;;2.87;2.40;;;;;;;22.93;63.17;99969.68;1628481;86;21154;-81
2022/06/27 05:11:53;;;;;;;3.50;2.72;;;;;;;22.99;62.86;99977.25;1628212;88;21075;-81
2022/06/27 05:14:19;;;;;;;8.90;2.70;;;;;;;23.06;63.03;99978.97;1627696;85;21080;-82
2022/06/27 05:16:47;;;;;;;5.85;2.60;;;;;;;23.12;63.16;99975.84;1626683;87;21019;-83
2022/06/27 05:19:14;;;;;;;8.48;2.47;;;;;;;23.20;62.96;99980.11;1601113;88;21494;-81
2022/06/27 05:21:41;;;;;;;8.78;2.67;;;;;;;23.27;62.35;99979.13;1628365;88;21592;-81
2022/06/27 05:24:08;;;;;;;2.75;2.50;;;;;;;23.34;61.87;99981.17;1628340;88;21740;-81
2022/06/27 05:26:35;;;;;;;3.12;2.55;;;;;;;23.44;62.32;99984.47;1628161;88;22375;-81
2022/06/27 05:29:03;;;;;;;4.83;2.40;;;;;;;23.51;61.99;99989.70;1628492;88;21008;-81
2022/06/27 05:31:30;;;;;;;6.15;2.87;;;;;;;23.60;61.87;99982.72;1628258;88;21420;-81
2022/06/27 05:33:57;;;;;;;5.25;2.58;;;;;;;23.68;61.58;99974.89;1628344;88;21040;-82
2022/06/27 05:36:23;;;;;;;6.03;2.65;;;;;;;23.77;61.09;99984.02;1628455;88;21755;-81
2022/06/27 05:38:50;;;;;;;7.37;2.52;;;;;;;23.83;60.79;99984.41;1628330;88;21064;-83
2022/06/27 05:41:17;;;;;;;7.90;2.77;;;;;;;23.91;60.85;99979.25;1628508;88;21074;-82
2022/06/27 05:43:43;;;;;;;3.70;2.75;;;;;;;24.01;60.95;99983.88;1628413;88;21031;-82
2022/06/27 05:46:10;;;;;;;3.17;2.60;;;;;;;24.13;61.26;99990.06;1628513;88;21043;-82
2022/06/27 05:48:42;;;;;;;2.72;2.52;;;;;;;24.23;60.97;99985.61;1615293;88;21217;-81
2022/06/27 05:51:30;;;;;;;3.70;2.58;;;;;;;24.30;60.61;99984.09;1627376;88;21035;-82
2022/06/27 05:53:57;;;;;;;4.00;2.45;;;;;;;24.35;60.43;99981.88;1628736;88;21083;-83
2022/06/27 05:56:25;;;;;;;9.83;2.85;;;;;;;24.41;60.02;99980.48;1635609;87;21132;-82
2022/06/27 05:58:55;;;;;;;3.67;2.60;;;;;;;24.44;59.60;99991.86;1642199;87;21114;-81
2022/06/27 06:01:23;;;;;;;2.90;2.75;;;;;;;24.51;60.00;99994.00;1642029;85;21897;-82
2022/06/27 06:03:52;;;;;;;4.53;3.00;;;;;;;24.61;60.38;99988.22;1661302;86;21082;-82
2022/06/27 06:06:19;;;;;;;5.58;2.87;;;;;;;24.75;60.22;100001.86;1661639;85;21055;-81
2022/06/27 06:08:46;;;;;;;3.35;3.05;;;;;;;24.85;59.26;99984.77;1661265;85;21538;-81
2022/06/27 06:11:13;;;;;;;7.22;3.60;;;;;;;24.95;59.36;99992.02;1661678;86;21031;-78
2022/06/27 06:13:40;;;;;;;4.17;2.77;;;;;;;25.01;59.24;99983.42;1661274;86;21087;-81
2022/06/27 06:16:09;;;;;;;6.58;3.20;;;;;;;25.07;58.94;99986.93;1661200;86;21114;-82
2022/06/27 06:18:36;;;;;;;3.80;2.90;;;;;;;25.14;58.76;99984.05;1648882;86;21068;-81
2022/06/27 06:21:03;;;;;;;3.92;2.40;;;;;;;25.20;57.80;99982.17;1642174;87;21666;-81
2022/06/27 06:23:32;;;;;;;5.45;2.67;;;;;;;25.25;57.66;99988.97;1642375;87;21119;-82
2022/06/27 06:25:59;;;;;;;6.10;2.45;;;;;;;25.29;57.85;99985.06;1642343;87;22176;-81
2022/06/27 06:28:30;;;;;;;4.08;2.35;;;;;;;25.32;57.31;99984.80;1642131;87;21029;-82
2022/06/27 06:30:55;;;;;;;5.53;3.10;;;;;;;25.37;57.61;99986.59;1647753;86;21140;-81
2022/06/27 06:33:21;;;;;;;4.92;3.08;;;;;;;25.42;57.87;99984.33;1642511;86;21096;-84
2022/06/27 06:35:48;;;;;;;6.22;3.10;;;;;;;25.50;58.76;99991.23;1642753;87;21001;-82
2022/06/27 06:38:15;;;;;;;4.60;2.67;;;;;;;25.56;58.29;99981.23;1642292;87;21493;-82
2022/06/27 06:40:42;;;;;;;3.40;3.08;;;;;;;25.64;57.52;99975.64;1642645;87;21065;-82
2022/06/27 06:43:08;;;;;;;7.35;2.95;;;;;;;25.70;56.89;99973.74;1642333;87;21147;-82
2022/06/27 06:45:44;;;;;;;40.58;4.10;;;;;;;25.77;56.43;99976.23;1642298;87;21077;-83
2022/06/27 06:48:17;;;;;;;4.50;2.60;;;;;;;25.83;56.16;99974.33;1641629;87;21087;-84
2022/06/27 06:50:44;;;;;;;4.50;3.08;;;;;;;25.91;56.45;99971.78;1642253;87;21478;-84
2022/06/27 06:53:11;;;;;;;6.58;2.90;;;;;;;25.99;56.14;99976.99;1642112;85;21041;-82
2022/06/27 06:55:37;;;;;;;2.27;2.17;;;;;;;26.06;55.89;99976.80;1642168;87;21060;-82
2022/06/27 06:58:04;;;;;;;6.90;2.60;;;;;;;26.13;55.17;99976.58;1629212;86;21551;-82
2022/06/27 07:00:31;;;;;;;3.40;2.37;;;;;;;26.22;55.17;99969.47;1628267;88;21023;-81
2022/06/27 07:02:58;;;;;;;10.75;2.12;;;;;;;26.30;54.84;99970.96;1628197;88;21144;-81
2022/06/27 07:05:25;;;;;;;4.20;2.42;;;;;;;26.39;55.02;99971.43;1629293;86;21078;-80
2022/06/27 07:07:53;;;;;;;5.47;2.17;;;;;;;26.47;54.16;99976.13;1631228;86;21024;-82
2022/06/27 07:10:21;;;;;;;3.25;2.60;;;;;;;26.55;55.04;99977.60;1628392;88;21091;-81
2022/06/27 07:12:48;;;;;;;2.60;2.00;;;;;;;26.64;54.33;99974.55;1628368;85;21606;-81
2022/06/27 07:15:15;;;;;;;5.47;2.42;;;;;;;26.75;53.80;99978.92;1628504;88;21520;-82
2022/06/27 07:17:48;;;;;;;5.55;2.45;;;;;;;26.83;53.05;99976.34;1628594;88;21083;-82
2022/06/27 07:20:18;;;;;;;4.20;2.40;;;;;;;26.93;53.47;99979.02;1639743;85;21087;-80
2022/06/27 07:22:44;;;;;;;3.02;2.65;;;;;;;27.01;53.51;99973.22;1671686;85;21287;-82
2022/06/27 07:25:11;;;;;;;4.03;2.50;;;;;;;27.11;53.37;99981.29;1671495;85;21094;-81
2022/06/27 07:27:39;;;;;;;3.95;2.12;;;;;;;27.21;52.49;99983.95;1671569;85;21194;-82
2022/06/27 07:30:09;;;;;;;5.35;2.58;;;;;;;27.29;52.24;99983.25;1671391;85;21078;-83
2022/06/27 07:32:41;;;;;;;4.22;1.98;;;;;;;27.39;52.19;99987.59;1671515;85;21149;-82
2022/06/27 07:35:11;;;;;;;9.65;2.25;;;;;;;27.48;51.45;99989.89;1671852;85;21080;-84
2022/06/27 07:37:45;;;;;;;3.40;1.90;;;;;;;27.59;51.68;99986.14;1671762;85;21119;-81
2022/06/27 07:40:11;;;;;;;2.85;2.05;;;;;;;27.70;50.75;99988.61;1671532;85;21174;-82
2022/06/27 07:42:38;;;;;;;8.90;2.60;;;;;;;27.82;50.13;99989.75;1671831;85;21550;-81
2022/06/27 07:45:07;;;;;;;3.50;2.02;;;;;;;27.90;50.22;99988.48;1671685;85;21098;-81
2022/06/27 07:47:35;;;;;;;5.40;2.40;;;;;;;27.98;50.10;99989.95;1671994;85;21055;-83
2022/06/27 07:50:03;;;;;;;2.98;2.40;;;;;;;28.07;50.22;99991.72;1671948;85;21649;-84
2022/06/27 07:53:11;;;;;;;5.70;2.27;;;;;;;28.17;50.37;99986.23;1671940;85;21165;-82
2022/06/27 07:54:58;;;;;;;3.70;2.52;;;;;;;28.28;50.24;99990.06;1668645;85;21588;-82
2022/06/27 07:57:24;;;;;;;4.45;2.20;;;;;;;28.39;50.11;99987.59;1679957;84;21059;-82
2022/06/27 07:59:54;;;;;;;3.80;2.10;;;;;;;28.48;49.93;99985.31;1689541;84;22099;-81
2022/06/27 08:02:20;;;;;;;4.50;2.40;;;;;;;28.53;49.02;99984.85;1689571;84;21038;-82
2022/06/27 08:04:47;;;;;;;5.80;2.42;;;;;;;28.59;49.36;99987.45;1689898;84;21202;-82
2022/06/27 08:07:14;;;;;;;9.23;2.50;;;;;;;28.68;49.93;99986.48;1689569;84;21118;-82
2022/06/27 08:09:41;;;;;;;6.05;2.20;;;;;;;28.76;49.72;99981.13;1689716;84;21121;-82
2022/06/27 08:12:10;;;;;;;3.30;2.25;;;;;;;28.82;49.43;99979.14;1689654;84;21086;-84
2022/06/27 08:14:37;;;;;;;5.53;2.12;;;;;;;28.89;49.82;99982.06;1689528;84;21082;-82
2022/06/27 08:17:04;;;;;;;6.25;2.20;;;;;;;28.97;49.57;99977.20;1689858;84;21551;-83
2022/06/27 08:19:31;;;;;;;2.47;1.95;;;;;;;29.07;49.00;99979.29;1689555;84;21093;-83
2022/06/27 08:21:58;;;;;;;2.75;2.25;;;;;;;29.17;47.37;99982.75;1689987;84;21089;-82
2022/06/27 08:24:24;;;;;;;3.67;2.12;;;;;;;29.25;47.36;99984.63;1689411;84;21168;-81
2022/06/27 08:26:52;;;;;;;4.50;2.15;;;;;;;29.33;46.41;99981.13;1689458;84;21682;-82
2022/06/27 08:29:20;;;;;;;3.22;2.12;;;;;;;29.38;45.91;99974.70;1689583;84;21162;-82
2022/06/27 08:31:48;;;;;;;4.65;2.00;;;;;;;29.46;46.59;99981.51;1689656;84;21122;-83
2022/06/27 08:34:14;;;;;;;3.45;2.55;;;;;;;29.51;46.15;99979.16;1689791;84;21145;-83
2022/06/27 08:36:41;;;;;;;2.00;1.80;;;;;;;29.60;45.76;99970.02;1689362;84;21177;-83
2022/06/27 08:39:11;;;;;;;3.47;1.90;;;;;;;29.72;44.53;99969.70;1689539;84;21183;-84
2022/06/27 08:41:38;;;;;;;3.98;1.90;;;;;;;29.78;44.22;99969.09;1689695;84;21226;-83
2022/06/27 08:44:06;;;;;;;5.45;1.95;;;;;;;29.86;45.07;99962.32;1689428;84;21141;-83
2022/06/27 08:46:33;;;;;;;7.42;2.00;;;;;;;29.92;44.85;99965.70;1689782;84;21133;-81
2022/06/27 08:49:02;;;;;;;2.10;1.90;;;;;;;29.93;44.58;99966.05;1689407;84;37996;-82
2022/06/27 08:51:29;;;;;;;6.22;2.12;;;;;;;29.88;43.59;99958.09;1689716;84;21128;-83
2022/06/27 08:53:55;;;;;;;5.03;2.22;;;;;;;29.85;44.77;99961.13;1689925;84;21117;-83
2022/06/27 08:56:22;;;;;;;3.12;2.20;;;;;;;29.88;44.38;99962.99;1689639;84;21105;-81
2022/06/27 08:58:50;;;;;;;6.70;2.37;;;;;;;29.91;44.47;99961.80;1688906;84;21133;-83
2022/06/27 09:01:19;;;;;;;7.20;2.00;;;;;;;29.91;43.40;99965.38;1689709;84;21134;-83
2022/06/27 09:04:01;;;;;;;6.37;2.10;;;;;;;29.88;42.52;99961.64;1689339;84;21098;-82
2022/06/27 09:06:35;;;;;;;8.08;1.60;;;;;;;29.84;42.93;99961.61;1689234;84;21151;-81
2022/06/27 09:09:08;;;;;;;3.65;1.80;;;;;;;29.84;43.62;99971.11;1689296;84;21065;-81
2022/06/27 09:11:43;;;;;;;2.98;2.08;;;;;;;29.83;42.97;99968.08;1686000;84;21233;-81
2022/06/27 09:14:37;;;;;;;5.25;1.90;;;;;;;29.86;43.22;99965.52;1689300;84;21071;-81
2022/06/27 09:17:09;;;;;;;3.15;1.60;;;;;;;29.92;43.31;99968.41;1672695;85;21103;-80
2022/06/27 09:19:53;;;;;;;3.90;1.82;;;;;;;30.05;44.35;99963.86;1673882;85;21828;-83
2022/06/27 09:22:23;;;;;;;5.80;1.90;;;;;;;30.09;42.56;99963.00;1671483;85;21609;-83
2022/06/27 09:25:06;;;;;;;6.62;1.77;;;;;;;30.10;42.36;99957.93;1648952;85;21138;-81
2022/06/27 09:27:46;;;;;;;5.53;1.80;;;;;;;30.11;41.80;99956.89;1646930;87;21515;-81
2022/06/27 09:30:23;;;;;;;4.35;2.22;;;;;;;30.22;42.37;99950.30;1646550;87;21135;-82
2022/06/27 09:32:58;;;;;;;4.37;1.77;;;;;;;30.32;41.69;99954.52;1646780;87;21142;-83
2022/06/27 09:35:31;;;;;;;7.03;2.10;;;;;;;30.40;41.16;99961.02;1646624;87;21083;-81
2022/06/27 09:38:01;;;;;;;5.25;1.80;;;;;;;30.47;41.43;99948.45;1646659;87;21609;-82
2022/06/27 09:40:29;;;;;;;9.85;1.60;;;;;;;30.60;41.74;99944.69;1646616;86;21101;-82
2022/06/27 09:42:56;;;;;;;3.33;1.70;;;;;;;30.70;41.69;99947.22;1646722;86;21040;-81
2022/06/27 09:45:26;;;;;;;3.80;1.82;;;;;;;30.78;41.24;99949.05;1646642;87;21157;-81
2022/06/27 09:47:58;;;;;;;4.95;1.77;;;;;;;30.87;40.87;99942.59;1646552;87;21539;-83
2022/06/27 09:50:28;;;;;;;3.75;1.72;;;;;;;30.99;41.07;99937.14;1645792;85;21213;-81
2022/06/27 09:52:55;;;;;;;5.45;2.22;;;;;;;31.10;40.59;99936.77;1646599;85;21115;-82
2022/06/27 09:55:23;;;;;;;5.50;1.60;;;;;;;31.22;39.86;99936.34;1646795;87;21095;-82
2022/06/27 09:57:50;;;;;;;2.62;1.47;;;;;;;31.26;39.31;99937.70;1643244;87;21658;-84
2022/06/27 10:00:19;;;;;;;12.43;1.95;;;;;;;31.20;38.25;99929.73;1636790;87;21113;-83
2022/06/27 10:02:50;;;;;;;5.45;1.42;;;;;;;31.05;37.98;99928.29;1636958;87;21121;-81
2022/06/27 10:05:18;;;;;;;5.28;1.60;;;;;;;30.92;38.37;99926.61;1637434;87;21081;-80
2022/06/27 10:08:00;;;;;;;3.77;1.50;;;;;;;30.95;38.89;99930.38;1637217;87;21078;-81
2022/06/27 10:10:30;;;;;;;5.10;1.80;;;;;;;31.02;38.75;99928.64;1636855;87;21652;-82
2022/06/27 10:13:03;;;;;;;4.40;1.60;;;;;;;31.10;39.52;99925.89;1636925;87;21102;-83
2022/06/27 10:15:35;;;;;;;1.87;1.72;;;;;;;31.19;40.25;99932.13;1610119;87;21038;-82
2022/06/27 10:18:03;;;;;;;6.00;1.70;;;;;;;31.21;39.28;99930.59;1637077;87;21081;-78
2022/06/27 10:20:36;;;;;;;5.22;1.40;;;;;;;31.10;38.97;99931.33;1637161;87;21121;-82
2022/06/27 10:23:14;;;;;;;4.70;1.55;;;;;;;31.00;38.49;99927.97;1637226;85;21833;-81
2022/06/27 10:25:42;;;;;;;3.45;1.70;;;;;;;30.86;38.60;99927.30;1637039;87;21027;-81
2022/06/27 10:28:14;;;;;;;3.00;1.80;;;;;;;30.79;39.12;99929.03;1637209;87;21078;-81
2022/06/27 10:30:56;;;;;;;4.60;2.20;;;;;;;30.81;40.11;99929.17;1637150;87;21074;-83
2022/06/27 10:33:31;;;;;;;3.47;1.77;;;;;;;30.97;40.32;99922.02;1637587;85;21111;-83
2022/06/27 10:36:03;;;;;;;2.55;1.65;;;;;;;31.14;40.20;99921.47;1637102;87;21564;-83
2022/06/27 10:38:46;;;;;;;3.37;1.67;;;;;;;31.34;40.08;99918.63;1636724;87;21086;-82
2022/06/27 10:41:22;;;;;;;5.87;2.00;;;;;;;31.52;38.64;99914.81;1637440;87;21105;-82
2022/06/27 10:43:51;;;;;;;4.67;1.70;;;;;;;31.68;38.45;99918.80;1633647;87;21036;-80
2022/06/27 10:46:23;;;;;;;3.00;1.42;;;;;;;31.78;37.89;99911.76;1637216;87;20968;-81
2022/06/27 10:48:59;;;;;;;2.65;1.32;;;;;;;31.79;37.97;99915.66;1637330;85;21067;-81
2022/06/27 10:51:29;;;;;;;1.90;1.67;;;;;;;31.78;37.54;99919.39;1637240;87;22230;-82
2022/06/27 10:54:08;;;;;;;4.50;1.65;;;;;;;31.77;37.58;99913.61;1637482;86;21523;-82
2022/06/27 10:56:36;;;;;;;4.37;1.37;;;;;;;31.87;38.90;99913.90;1637192;87;21098;-81
2022/06/27 10:59:16;;;;;;;2.75;1.50;;;;;;;32.00;38.17;99919.58;1627044;86;21028;-81
2022/06/27 11:01:52;;;;;;;5.10;1.77;;;;;;;31.97;37.14;99923.49;1625365;88;21194;-82
2022/06/27 11:04:28;;;;;;;1.77;1.55;;;;;;;31.83;36.53;99923.78;1634867;87;20999;-82
2022/06/27 11:06:59;;;;;;;3.80;1.70;;;;;;;31.70;36.80;99912.66;1625482;88;22238;-82
2022/06/27 11:09:45;;;;;;;6.53;1.52;;;;;;;31.65;36.22;99915.06;1625405;88;20988;-81
2022/06/27 11:12:18;;;;;;;4.65;1.50;;;;;;;31.54;34.53;99918.19;1637203;86;21007;-82
2022/06/27 11:14:57;;;;;;;1.90;1.32;;;;;;;31.48;35.12;99914.30;1625505;88;21574;-82
2022/06/27 11:17:41;;;;;;;2.02;1.00;;;;;;;31.47;35.32;99913.95;1628978;86;21620;-83
2022/06/27 11:20:23;;;;;;;5.05;1.45;;;;;;;31.53;34.12;99908.36;1625026;88;21091;-81
2022/06/27 11:22:56;;;;;;;6.70;1.22;;;;;;;31.64;33.25;99900.63;1637129;87;21138;-83
2022/06/27 11:25:25;;;;;;;5.83;1.10;;;;;;;31.80;32.67;99905.09;1639402;86;21162;-82
2022/06/27 11:31:57;;;;;;;6.53;1.95;;;;;;;31.94;31.68;99905.33;1651695;86;21133;-83
2022/06/27 11:33:26;;;;;;;3.08;1.00;;;;;;;32.12;33.61;99903.16;1651839;86;21544;-83
2022/06/27 11:35:54;;;;;;;5.00;1.02;;;;;;;32.15;32.23;99907.41;1652657;86;21145;-83
2022/06/27 11:38:31;;;;;;;4.45;1.10;;;;;;;32.14;32.23;99906.53;1651989;86;21178;-81
2022/06/27 11:41:09;;;;;;;2.87;0.98;;;;;;;32.16;31.65;99903.63;1652038;86;21115;-81
2022/06/27 11:44:03;;;;;;;2.98;1.20;;;;;;;32.22;31.18;99900.19;1651844;86;21122;-81
2022/06/27 11:46:45;;;;;;;4.90;1.20;;;;;;;32.18;30.59;99900.23;1652424;86;21061;-78
2022/06/27 11:49:18;;;;;;;2.22;1.20;;;;;;;32.13;31.32;99902.66;1651212;86;21118;-84
2022/06/27 11:51:47;;;;;;;4.10;1.10;;;;;;;32.18;31.37;99899.71;1652265;86;21051;-81